sensor_id;sensor_type;location;lat;lon;timestamp;P1;durP1;ratioP1;P2;durP2;ratioP2
42964;SDS011;28604;51.204;22.552;2023-12-22T03:51:27;6.70;;;0.80;;
42964;SDS011;28604;51.204;22.552;2023-12-22T03:53:53;5.05;;;0.52;;
42964;SDS011;28604;51.204;22.552;2023-12-22T03:56:19;8.70;;;0.47;;
42964;SDS011;28604;51.204;22.552;2023-12-22T03:58:45;9.73;;;1.27;;
42964;SDS011;28604;51.204;22.552;2023-12-22T04:01:13;5.18;;;1.08;;
42964;SDS011;28604;51.204;22.552;2023-12-22T04:03:40;3.47;;;0.43;;
42964;SDS011;28604;51.204;22.552;2023-12-22T04:06:06;3.90;;;0.50;;
42964;SDS011;28604;51.204;22.552;2023-12-22T04:08:32;7.30;;;0.93;;
42964;SDS011;28604;51.204;22.552;2023-12-22T04:10:57;7.60;;;1.08;;
42964;SDS011;28604;51.204;22.552;2023-12-22T04:13:24;6.85;;;1.25;;
42964;SDS011;28604;51.204;22.552;2023-12-22T04:15:49;8.00;;;0.90;;
42964;SDS011;28604;51.204;22.552;2023-12-22T04:18:15;5.22;;;0.75;;
42964;SDS011;28604;51.204;22.552;2023-12-22T04:20:41;3.47;;;0.55;;
42964;SDS011;28604;51.204;22.552;2023-12-22T04:23:07;6.45;;;0.90;;
42964;SDS011;28604;51.204;22.552;2023-12-22T04:25:33;7.00;;;0.90;;
42964;SDS011;28604;51.204;22.552;2023-12-22T04:27:59;8.38;;;0.70;;
42964;SDS011;28604;51.204;22.552;2023-12-22T04:30:25;4.45;;;0.98;;
42964;SDS011;28604;51.204;22.552;2023-12-22T04:32:53;7.85;;;0.95;;
42964;SDS011;28604;51.204;22.552;2023-12-22T04:35:19;7.95;;;0.60;;
42964;SDS011;28604;51.204;22.552;2023-12-22T04:37:44;7.82;;;1.95;;
42964;SDS011;28604;51.204;22.552;2023-12-22T04:40:10;8.63;;;0.90;;
42964;SDS011;28604;51.204;22.552;2023-12-22T04:42:37;7.03;;;0.90;;
42964;SDS011;28604;51.204;22.552;2023-12-22T04:45:03;5.72;;;0.75;;
42964;SDS011;28604;51.204;22.552;2023-12-22T04:47:29;5.60;;;1.25;;
42964;SDS011;28604;51.204;22.552;2023-12-22T04:49:55;14.00;;;0.63;;
42964;SDS011;28604;51.204;22.552;2023-12-22T04:52:21;3.47;;;0.47;;
42964;SDS011;28604;51.204;22.552;2023-12-22T04:54:47;8.77;;;0.90;;
42964;SDS011;28604;51.204;22.552;2023-12-22T04:57:12;5.55;;;0.40;;
42964;SDS011;28604;51.204;22.552;2023-12-22T04:59:38;7.88;;;1.05;;
42964;SDS011;28604;51.204;22.552;2023-12-22T05:02:04;6.90;;;0.63;;
42964;SDS011;28604;51.204;22.552;2023-12-22T05:04:30;11.10;;;0.88;;
42964;SDS011;28604;51.204;22.552;2023-12-22T05:09:51;12.75;;;1.50;;
42964;SDS011;28604;51.204;22.552;2023-12-22T05:12:20;7.00;;;1.50;;
42964;SDS011;28604;51.204;22.552;2023-12-22T05:14:45;6.43;;;0.80;;
42964;SDS011;28604;51.204;22.552;2023-12-22T05:17:11;6.15;;;1.40;;
42964;SDS011;28604;51.204;22.552;2023-12-22T05:19:37;8.93;;;1.60;;
42964;SDS011;28604;51.204;22.552;2023-12-22T05:22:03;3.20;;;0.70;;
42964;SDS011;28604;51.204;22.552;2023-12-22T05:24:29;10.57;;;1.00;;
42964;SDS011;28604;51.204;22.552;2023-12-22T05:26:55;10.32;;;1.10;;
42964;SDS011;28604;51.204;22.552;2023-12-22T05:29:21;9.07;;;1.20;;
42964;SDS011;28604;51.204;22.552;2023-12-22T05:31:47;3.17;;;0.73;;
42964;SDS011;28604;51.204;22.552;2023-12-22T05:34:13;10.48;;;1.23;;
42964;SDS011;28604;51.204;22.552;2023-12-22T05:36:39;7.43;;;1.63;;
42964;SDS011;28604;51.204;22.552;2023-12-22T05:39:04;9.88;;;1.55;;
42964;SDS011;28604;51.204;22.552;2023-12-22T05:41:33;8.25;;;1.05;;
42964;SDS011;28604;51.204;22.552;2023-12-22T05:44:01;6.20;;;0.98;;
42964;SDS011;28604;51.204;22.552;2023-12-22T05:46:27;5.45;;;0.95;;
42964;SDS011;28604;51.204;22.552;2023-12-22T05:48:53;13.05;;;1.17;;
42964;SDS011;28604;51.204;22.552;2023-12-22T05:51:20;8.98;;;0.90;;
42964;SDS011;28604;51.204;22.552;2023-12-22T05:53:46;14.90;;;1.13;;
42964;SDS011;28604;51.204;22.552;2023-12-22T05:56:19;6.40;;;0.98;;
42964;SDS011;28604;51.204;22.552;2023-12-22T06:01:15;5.28;;;0.70;;
42964;SDS011;28604;51.204;22.552;2023-12-22T06:03:42;11.35;;;1.13;;
42964;SDS011;28604;51.204;22.552;2023-12-22T06:06:08;11.30;;;1.95;;
42964;SDS011;28604;51.204;22.552;2023-12-22T06:08:33;12.45;;;1.25;;
42964;SDS011;28604;51.204;22.552;2023-12-22T06:11:00;9.75;;;1.25;;
42964;SDS011;28604;51.204;22.552;2023-12-22T06:13:25;11.43;;;1.27;;
42964;SDS011;28604;51.204;22.552;2023-12-22T06:15:51;9.48;;;1.35;;
42964;SDS011;28604;51.204;22.552;2023-12-22T06:18:17;7.95;;;1.73;;
42964;SDS011;28604;51.204;22.552;2023-12-22T06:20:43;9.75;;;1.30;;
42964;SDS011;28604;51.204;22.552;2023-12-22T06:23:09;17.75;;;1.63;;
42964;SDS011;28604;51.204;22.552;2023-12-22T06:25:35;10.98;;;2.00;;
42964;SDS011;28604;51.204;22.552;2023-12-22T06:28:01;13.20;;;1.85;;
42964;SDS011;28604;51.204;22.552;2023-12-22T06:30:27;18.20;;;3.53;;
42964;SDS011;28604;51.204;22.552;2023-12-22T06:32:53;15.98;;;4.25;;
42964;SDS011;28604;51.204;22.552;2023-12-22T06:35:19;22.00;;;5.85;;
42964;SDS011;28604;51.204;22.552;2023-12-22T06:37:49;15.38;;;2.78;;
42964;SDS011;28604;51.204;22.552;2023-12-22T06:40:15;14.07;;;2.20;;
42964;SDS011;28604;51.204;22.552;2023-12-22T06:42:41;12.75;;;4.03;;
42964;SDS011;28604;51.204;22.552;2023-12-22T06:45:07;17.08;;;2.13;;
42964;SDS011;28604;51.204;22.552;2023-12-22T06:47:35;11.38;;;2.33;;
42964;SDS011;28604;51.204;22.552;2023-12-22T06:50:02;10.55;;;1.73;;
42964;SDS011;28604;51.204;22.552;2023-12-22T06:52:29;10.65;;;1.40;;
42964;SDS011;28604;51.204;22.552;2023-12-22T06:54:56;5.95;;;1.27;;
42964;SDS011;28604;51.204;22.552;2023-12-22T06:57:22;10.25;;;1.73;;
42964;SDS011;28604;51.204;22.552;2023-12-22T07:02:41;15.23;;;1.50;;
42964;SDS011;28604;51.204;22.552;2023-12-22T07:07:49;18.27;;;1.73;;
42964;SDS011;28604;51.204;22.552;2023-12-22T07:10:16;10.73;;;1.35;;
42964;SDS011;28604;51.204;22.552;2023-12-22T07:12:42;8.15;;;1.20;;
42964;SDS011;28604;51.204;22.552;2023-12-22T07:15:08;8.73;;;1.98;;
42964;SDS011;28604;51.204;22.552;2023-12-22T07:17:34;12.05;;;2.00;;
42964;SDS011;28604;51.204;22.552;2023-12-22T07:20:00;9.55;;;1.13;;
42964;SDS011;28604;51.204;22.552;2023-12-22T07:22:28;8.98;;;1.63;;
42964;SDS011;28604;51.204;22.552;2023-12-22T07:24:55;10.75;;;1.55;;
42964;SDS011;28604;51.204;22.552;2023-12-22T07:27:21;8.52;;;0.88;;
42964;SDS011;28604;51.204;22.552;2023-12-22T07:29:48;14.57;;;2.10;;
42964;SDS011;28604;51.204;22.552;2023-12-22T10:04:45;9.48;;;1.73;;
42964;SDS011;28604;51.204;22.552;2023-12-22T10:07:12;7.25;;;1.50;;
42964;SDS011;28604;51.204;22.552;2023-12-22T10:09:40;11.02;;;1.92;;
42964;SDS011;28604;51.204;22.552;2023-12-22T10:12:08;5.93;;;1.25;;
42964;SDS011;28604;51.204;22.552;2023-12-22T10:14:36;10.25;;;1.33;;
42964;SDS011;28604;51.204;22.552;2023-12-22T10:17:04;10.57;;;1.65;;
42964;SDS011;28604;51.204;22.552;2023-12-22T10:19:30;9.85;;;1.50;;
42964;SDS011;28604;51.204;22.552;2023-12-22T10:21:56;12.43;;;1.88;;
42964;SDS011;28604;51.204;22.552;2023-12-22T10:27:04;10.60;;;1.90;;
42964;SDS011;28604;51.204;22.552;2023-12-22T10:29:31;10.23;;;2.13;;
42964;SDS011;28604;51.204;22.552;2023-12-22T10:32:00;11.73;;;2.28;;
42964;SDS011;28604;51.204;22.552;2023-12-22T10:34:27;9.88;;;2.03;;
42964;SDS011;28604;51.204;22.552;2023-12-22T10:36:53;9.55;;;2.35;;
42964;SDS011;28604;51.204;22.552;2023-12-22T10:39:18;9.80;;;1.73;;
42964;SDS011;28604;51.204;22.552;2023-12-22T10:41:46;7.38;;;1.23;;
42964;SDS011;28604;51.204;22.552;2023-12-22T10:44:14;11.55;;;2.05;;
42964;SDS011;28604;51.204;22.552;2023-12-22T10:46:43;13.48;;;1.85;;
42964;SDS011;28604;51.204;22.552;2023-12-22T10:49:09;9.98;;;1.35;;
42964;SDS011;28604;51.204;22.552;2023-12-22T10:51:35;8.13;;;1.23;;
42964;SDS011;28604;51.204;22.552;2023-12-22T10:54:00;8.70;;;1.80;;
42964;SDS011;28604;51.204;22.552;2023-12-22T10:56:30;6.50;;;1.08;;
42964;SDS011;28604;51.204;22.552;2023-12-22T10:58:55;8.60;;;1.30;;
42964;SDS011;28604;51.204;22.552;2023-12-22T11:01:24;9.82;;;1.30;;
42964;SDS011;28604;51.204;22.552;2023-12-22T11:03:57;8.20;;;0.80;;
42964;SDS011;28604;51.204;22.552;2023-12-22T11:06:27;12.40;;;0.90;;
42964;SDS011;28604;51.204;22.552;2023-12-22T11:08:56;3.67;;;0.77;;
42964;SDS011;28604;51.204;22.552;2023-12-22T11:11:27;6.07;;;1.13;;
42964;SDS011;28604;51.204;22.552;2023-12-22T11:14:00;7.68;;;1.10;;
42964;SDS011;28604;51.204;22.552;2023-12-22T11:16:27;10.77;;;1.55;;
42964;SDS011;28604;51.204;22.552;2023-12-22T11:18:54;8.48;;;0.98;;
42964;SDS011;28604;51.204;22.552;2023-12-22T11:21:21;12.90;;;1.40;;
42964;SDS011;28604;51.204;22.552;2023-12-22T11:23:52;11.57;;;1.13;;
42964;SDS011;28604;51.204;22.552;2023-12-22T14:15:33;3.55;;;0.60;;
42964;SDS011;28604;51.204;22.552;2023-12-22T14:17:59;5.15;;;0.60;;
42964;SDS011;28604;51.204;22.552;2023-12-22T14:20:25;5.15;;;0.75;;
42964;SDS011;28604;51.204;22.552;2023-12-22T14:22:51;5.60;;;0.70;;
42964;SDS011;28604;51.204;22.552;2023-12-22T14:25:17;3.70;;;1.17;;
42964;SDS011;28604;51.204;22.552;2023-12-22T14:27:43;7.82;;;0.82;;
42964;SDS011;28604;51.204;22.552;2023-12-22T14:30:09;4.93;;;1.00;;
42964;SDS011;28604;51.204;22.552;2023-12-22T14:32:36;1.83;;;0.70;;
42964;SDS011;28604;51.204;22.552;2023-12-22T14:35:03;2.90;;;0.70;;
42964;SDS011;28604;51.204;22.552;2023-12-22T14:37:29;6.47;;;1.02;;
42964;SDS011;28604;51.204;22.552;2023-12-22T14:39:55;3.47;;;1.00;;
42964;SDS011;28604;51.204;22.552;2023-12-22T14:42:21;4.63;;;1.30;;
42964;SDS011;28604;51.204;22.552;2023-12-22T14:44:47;5.30;;;1.52;;
42964;SDS011;28604;51.204;22.552;2023-12-22T14:47:13;3.90;;;0.85;;
42964;SDS011;28604;51.204;22.552;2023-12-22T15:06:27;11.88;;;3.75;;
42964;SDS011;28604;51.204;22.552;2023-12-22T15:08:53;10.82;;;3.13;;
42964;SDS011;28604;51.204;22.552;2023-12-22T15:11:19;5.32;;;2.53;;
42964;SDS011;28604;51.204;22.552;2023-12-22T15:13:45;8.43;;;2.53;;
42964;SDS011;28604;51.204;22.552;2023-12-22T15:16:10;9.90;;;2.97;;
42964;SDS011;28604;51.204;22.552;2023-12-22T15:18:36;10.82;;;2.88;;
42964;SDS011;28604;51.204;22.552;2023-12-22T15:21:02;10.27;;;3.28;;
42964;SDS011;28604;51.204;22.552;2023-12-22T15:23:29;6.53;;;1.98;;
42964;SDS011;28604;51.204;22.552;2023-12-22T15:25:55;11.82;;;2.63;;
42964;SDS011;28604;51.204;22.552;2023-12-22T15:28:22;5.97;;;2.20;;
42964;SDS011;28604;51.204;22.552;2023-12-22T15:30:48;9.07;;;2.58;;
42964;SDS011;28604;51.204;22.552;2023-12-22T15:33:14;6.22;;;2.50;;
42964;SDS011;28604;51.204;22.552;2023-12-22T15:35:40;6.30;;;1.85;;
42964;SDS011;28604;51.204;22.552;2023-12-22T15:38:06;5.38;;;1.20;;
42964;SDS011;28604;51.204;22.552;2023-12-22T15:40:32;4.55;;;1.40;;
42964;SDS011;28604;51.204;22.552;2023-12-22T15:42:58;4.70;;;1.52;;
42964;SDS011;28604;51.204;22.552;2023-12-22T15:45:24;7.05;;;1.95;;
42964;SDS011;28604;51.204;22.552;2023-12-22T15:47:50;4.10;;;1.08;;
42964;SDS011;28604;51.204;22.552;2023-12-22T15:50:16;6.53;;;1.55;;
42964;SDS011;28604;51.204;22.552;2023-12-22T15:52:42;3.60;;;2.15;;
42964;SDS011;28604;51.204;22.552;2023-12-22T15:55:08;6.72;;;2.55;;
42964;SDS011;28604;51.204;22.552;2023-12-22T15:57:35;9.25;;;3.20;;
42964;SDS011;28604;51.204;22.552;2023-12-22T16:00:01;7.65;;;2.70;;
42964;SDS011;28604;51.204;22.552;2023-12-22T16:02:35;7.50;;;2.65;;
42964;SDS011;28604;51.204;22.552;2023-12-22T16:05:04;3.85;;;1.83;;
42964;SDS011;28604;51.204;22.552;2023-12-22T16:07:30;5.05;;;2.03;;
42964;SDS011;28604;51.204;22.552;2023-12-22T16:09:56;8.05;;;3.38;;
42964;SDS011;28604;51.204;22.552;2023-12-22T16:12:22;8.30;;;2.42;;
42964;SDS011;28604;51.204;22.552;2023-12-22T16:14:48;12.70;;;3.63;;
42964;SDS011;28604;51.204;22.552;2023-12-22T16:17:14;10.07;;;2.60;;
42964;SDS011;28604;51.204;22.552;2023-12-22T16:19:40;9.52;;;2.25;;
42964;SDS011;28604;51.204;22.552;2023-12-22T16:22:06;5.75;;;1.98;;
42964;SDS011;28604;51.204;22.552;2023-12-22T16:24:32;5.68;;;2.28;;
42964;SDS011;28604;51.204;22.552;2023-12-22T16:26:58;5.85;;;2.13;;
42964;SDS011;28604;51.204;22.552;2023-12-22T16:29:24;6.55;;;2.20;;
42964;SDS011;28604;51.204;22.552;2023-12-22T16:31:50;7.35;;;2.00;;
42964;SDS011;28604;51.204;22.552;2023-12-22T16:34:16;4.38;;;2.10;;
42964;SDS011;28604;51.204;22.552;2023-12-22T16:36:45;3.88;;;1.67;;
42964;SDS011;28604;51.204;22.552;2023-12-22T16:39:12;8.27;;;2.92;;
42964;SDS011;28604;51.204;22.552;2023-12-22T16:41:38;13.48;;;3.90;;
42964;SDS011;28604;51.204;22.552;2023-12-22T16:44:04;6.35;;;2.20;;
42964;SDS011;28604;51.204;22.552;2023-12-22T16:46:30;8.23;;;2.72;;
42964;SDS011;28604;51.204;22.552;2023-12-22T16:48:56;11.82;;;2.45;;
42964;SDS011;28604;51.204;22.552;2023-12-22T16:51:22;13.48;;;3.15;;
42964;SDS011;28604;51.204;22.552;2023-12-22T16:53:48;6.95;;;2.55;;
42964;SDS011;28604;51.204;22.552;2023-12-22T16:56:14;9.55;;;2.40;;
42964;SDS011;28604;51.204;22.552;2023-12-22T16:58:41;3.88;;;1.98;;
42964;SDS011;28604;51.204;22.552;2023-12-22T17:01:07;9.07;;;2.10;;
42964;SDS011;28604;51.204;22.552;2023-12-22T17:03:33;6.05;;;1.90;;
42964;SDS011;28604;51.204;22.552;2023-12-22T17:06:01;12.30;;;2.85;;
42964;SDS011;28604;51.204;22.552;2023-12-22T17:08:27;7.28;;;2.38;;
42964;SDS011;28604;51.204;22.552;2023-12-22T17:10:54;5.55;;;2.05;;
42964;SDS011;28604;51.204;22.552;2023-12-22T17:13:19;10.27;;;2.53;;
42964;SDS011;28604;51.204;22.552;2023-12-22T17:15:46;5.10;;;1.63;;
42964;SDS011;28604;51.204;22.552;2023-12-22T17:18:11;10.35;;;3.85;;
42964;SDS011;28604;51.204;22.552;2023-12-22T17:20:37;5.88;;;2.15;;
42964;SDS011;28604;51.204;22.552;2023-12-22T17:23:03;10.60;;;1.52;;
42964;SDS011;28604;51.204;22.552;2023-12-22T17:25:29;5.82;;;1.90;;
42964;SDS011;28604;51.204;22.552;2023-12-22T17:27:55;5.20;;;1.92;;
42964;SDS011;28604;51.204;22.552;2023-12-22T17:30:21;8.25;;;1.70;;
42964;SDS011;28604;51.204;22.552;2023-12-22T17:32:53;5.45;;;2.22;;
42964;SDS011;28604;51.204;22.552;2023-12-22T17:35:19;5.65;;;1.77;;
42964;SDS011;28604;51.204;22.552;2023-12-22T17:37:45;5.95;;;2.10;;
42964;SDS011;28604;51.204;22.552;2023-12-22T17:40:11;6.45;;;2.10;;
42964;SDS011;28604;51.204;22.552;2023-12-22T17:42:37;5.72;;;1.42;;
42964;SDS011;28604;51.204;22.552;2023-12-22T17:45:07;7.53;;;2.53;;
42964;SDS011;28604;51.204;22.552;2023-12-22T20:36:13;12.00;;;1.60;;
42964;SDS011;28604;51.204;22.552;2023-12-22T20:38:39;8.00;;;2.38;;
42964;SDS011;28604;51.204;22.552;2023-12-22T20:41:06;10.18;;;1.50;;
42964;SDS011;28604;51.204;22.552;2023-12-22T20:43:33;10.00;;;1.55;;
42964;SDS011;28604;51.204;22.552;2023-12-22T20:45:59;6.40;;;1.27;;
42964;SDS011;28604;51.204;22.552;2023-12-22T20:48:25;10.68;;;1.90;;
42964;SDS011;28604;51.204;22.552;2023-12-22T20:50:52;13.23;;;1.45;;
42964;SDS011;28604;51.204;22.552;2023-12-22T20:53:18;10.75;;;2.40;;
42964;SDS011;28604;51.204;22.552;2023-12-22T20:55:44;4.15;;;1.10;;
42964;SDS011;28604;51.204;22.552;2023-12-22T20:58:10;4.45;;;1.27;;
42964;SDS011;28604;51.204;22.552;2023-12-22T21:00:36;10.07;;;1.45;;
42964;SDS011;28604;51.204;22.552;2023-12-22T21:03:02;9.43;;;1.25;;
42964;SDS011;28604;51.204;22.552;2023-12-22T21:05:29;6.93;;;1.30;;
42964;SDS011;28604;51.204;22.552;2023-12-22T21:07:55;8.45;;;1.30;;
42964;SDS011;28604;51.204;22.552;2023-12-22T21:10:21;7.68;;;1.25;;
42964;SDS011;28604;51.204;22.552;2023-12-22T21:12:47;10.00;;;1.75;;
42964;SDS011;28604;51.204;22.552;2023-12-22T21:15:13;8.20;;;1.33;;
42964;SDS011;28604;51.204;22.552;2023-12-22T21:17:40;10.63;;;1.77;;
42964;SDS011;28604;51.204;22.552;2023-12-22T21:20:12;3.25;;;0.88;;
42964;SDS011;28604;51.204;22.552;2023-12-22T21:22:38;10.43;;;1.92;;
42964;SDS011;28604;51.204;22.552;2023-12-22T21:25:04;7.13;;;1.63;;
